Time;durP1;ratioP1;P1;durP2;ratioP2;P2;SDS_P1;SDS_P2;PMS_P1;PMS_P2;Temp;Humidity;BMP_temperature;BMP_pressure;BME280_temperature;BME280_humidity;BME280_pressure;Samples;Min_cycle;Max_cycle;Signal;HPM_P1;HPM_P2
2022/04/19 00:04:19;;;;;;;5.68;3.25;;;11.20;99.90;;;;;;21054751;28;20602;-44
2022/04/19 00:14:20;;;;;;;8.35;2.58;;;11.00;99.90;;;;;;21059095;28;20020;-44
2022/04/19 00:24:21;;;;;;;3.60;1.90;;;10.90;99.90;;;;;;21045557;28;20024;-44
2022/04/19 00:34:22;;;;;;;5.68;3.15;;;10.90;99.90;;;;;;21051003;28;20063;-44
2022/04/19 00:44:24;;;;;;;5.85;2.90;;;10.80;99.90;;;;;;21055892;28;20046;-44
2022/04/19 00:54:26;;;;;;;4.30;2.13;;;10.60;99.90;;;;;;21051988;28;20048;-44
2022/04/19 01:04:27;;;;;;;4.05;2.08;;;10.40;99.90;;;;;;21055495;28;20032;-44
2022/04/19 01:14:29;;;;;;;5.85;3.45;;;10.40;99.90;;;;;;21044144;28;20039;-44
2022/04/19 01:24:29;;;;;;;4.97;2.00;;;10.30;99.90;;;;;;21038699;28;20032;-44
2022/04/19 01:34:31;;;;;;;5.93;3.28;;;10.20;99.90;;;;;;21030521;28;20027;-44
2022/04/19 01:44:33;;;;;;;4.50;1.98;;;10.10;99.90;;;;;;21053668;28;20055;-44
2022/04/19 01:54:35;;;;;;;5.15;1.98;;;10.10;99.90;;;;;;21031923;28;20508;-44
2022/04/19 02:04:36;;;;;;;6.32;2.60;;;9.90;99.90;;;;;;21046223;28;20054;-44
2022/04/19 02:14:41;;;;;;;5.55;2.88;;;9.70;99.90;;;;;;21038709;28;20035;-43
2022/04/19 02:24:42;;;;;;;5.28;1.92;;;9.70;99.90;;;;;;21048250;28;20031;-44
2022/04/19 02:34:43;;;;;;;6.65;2.15;;;9.60;99.90;;;;;;21047256;28;20031;-44
2022/04/19 02:44:44;;;;;;;5.90;2.70;;;9.40;99.90;;;;;;21033374;28;20025;-44
2022/04/19 02:54:45;;;;;;;3.47;2.03;;;9.30;99.90;;;;;;21042966;28;20059;-44
2022/04/19 03:04:47;;;;;;;4.93;2.08;;;9.20;99.90;;;;;;21033465;28;20029;-44
2022/04/19 03:14:48;;;;;;;4.68;2.17;;;9.10;99.90;;;;;;21049246;28;20032;-44
2022/04/19 03:35:15;;;;;;;5.18;2.10;;;9.00;99.90;;;;;;21030134;28;20068;-44
2022/04/19 03:45:16;;;;;;;5.28;3.15;;;9.00;99.90;;;;;;21045995;28;20500;-44
2022/04/19 03:55:18;;;;;;;4.80;2.13;;;8.80;99.90;;;;;;21047106;28;20036;-44
2022/04/19 04:05:19;;;;;;;5.50;2.50;;;8.70;99.90;;;;;;21044496;28;20032;-43
2022/04/19 04:15:20;;;;;;;4.50;1.98;;;8.70;99.90;;;;;;21050402;28;20039;-43
2022/04/19 04:25:21;;;;;;;5.43;2.97;;;8.50;99.90;;;;;;21054977;28;20024;-44
2022/04/19 04:35:22;;;;;;;3.90;2.28;;;8.30;99.90;;;;;;21052958;28;20024;-44
2022/04/19 04:45:25;;;;;;;5.28;2.38;;;8.20;99.90;;;;;;21060283;28;20028;-44
2022/04/19 04:55:26;;;;;;;6.78;3.33;;;8.10;99.90;;;;;;21049933;28;20032;-43
2022/04/19 05:05:27;;;;;;;4.75;2.40;;;8.00;99.90;;;;;;21052463;28;20028;-44
2022/04/19 05:15:29;;;;;;;9.63;3.08;;;8.00;99.90;;;;;;21057656;28;20028;-44
2022/04/19 05:25:30;;;;;;;5.85;2.72;;;8.10;99.90;;;;;;21043593;28;20035;-44
2022/04/19 05:35:32;;;;;;;7.38;3.08;;;8.20;99.90;;;;;;21048073;28;20028;-44
2022/04/19 05:45:33;;;;;;;4.47;2.75;;;8.30;99.90;;;;;;21053606;28;20027;-44
2022/04/19 05:55:34;;;;;;;5.70;2.85;;;8.80;99.90;;;;;;21049321;28;20044;-44
2022/04/19 06:05:35;;;;;;;5.63;2.55;;;9.10;99.90;;;;;;21045312;28;20538;-44
2022/04/19 06:15:37;;;;;;;5.25;2.17;;;9.30;99.90;;;;;;21045182;28;20364;-44
2022/04/19 06:25:38;;;;;;;5.00;2.47;;;9.50;99.90;;;;;;21036476;28;20039;-44
2022/04/19 06:35:39;;;;;;;5.15;2.55;;;10.00;99.90;;;;;;21040386;28;20032;-44
2022/04/19 06:45:43;;;;;;;4.57;2.30;;;10.40;99.90;;;;;;21047123;28;20063;-44
2022/04/19 06:55:44;;;;;;;6.10;2.00;;;11.10;99.90;;;;;;21049112;28;20048;-44
2022/04/19 07:05:46;;;;;;;3.47;1.83;;;11.60;99.90;;;;;;21035885;28;20063;-44
2022/04/19 07:15:47;;;;;;;5.78;2.90;;;11.80;99.90;;;;;;21016803;28;20117;-44
2022/04/19 07:36:08;;;;;;;3.30;1.92;;;12.40;99.90;;;;;;21027944;28;20023;-44
2022/04/19 07:46:10;;;;;;;3.92;1.90;;;12.80;99.90;;;;;;21049599;28;20036;-44
2022/04/19 07:56:11;;;;;;;3.95;1.83;;;13.10;99.90;;;;;;21060310;28;20048;-44
2022/04/19 08:06:12;;;;;;;4.22;2.35;;;13.50;99.90;;;;;;21054136;28;20040;-44
2022/04/19 08:16:14;;;;;;;3.00;1.30;;;14.20;99.90;;;;;;21056493;28;20024;-44
2022/04/19 08:26:15;;;;;;;4.70;1.67;;;14.70;99.90;;;;;;21061236;28;20467;-44
2022/04/19 08:36:18;;;;;;;2.45;1.25;;;15.30;99.90;;;;;;21048628;28;20498;-44
2022/04/19 08:46:22;;;;;;;3.13;0.98;;;16.00;96.90;;;;;;21057790;28;20027;-44
2022/04/19 09:06:50;;;;;;;1.95;1.10;;;16.80;95.30;;;;;;21024818;28;20043;-44
2022/04/19 09:17:11;;;;;;;2.47;1.23;;;17.10;94.00;;;;;;21035917;28;20130;-44
2022/04/19 09:27:12;;;;;;;3.83;1.33;;;17.40;94.30;;;;;;21053841;28;20055;-44
2022/04/19 09:37:13;;;;;;;4.13;1.55;;;17.90;90.90;;;;;;21043514;28;20031;-44
2022/04/19 09:47:15;;;;;;;4.72;2.00;;;18.10;89.00;;;;;;21054729;28;20020;-44
2022/04/19 09:57:16;;;;;;;3.45;1.45;;;18.10;88.50;;;;;;21051138;28;20040;-44
2022/04/19 10:17:38;;;;;;;3.53;1.27;;;18.70;87.00;;;;;;21049902;28;20443;-44
2022/04/19 10:27:39;;;;;;;1.73;0.88;;;18.90;84.00;;;;;;21035827;28;20028;-44
2022/04/19 10:37:42;;;;;;;2.83;1.48;;;19.00;83.50;;;;;;21037762;28;20349;-44
2022/04/19 10:48:03;;;;;;;3.78;1.50;;;19.20;81.40;;;;;;21031842;28;20036;-44
2022/04/19 10:58:38;;;;;;;3.55;1.15;;;19.80;80.30;;;;;;21042509;28;20169;-44
2022/04/19 11:08:33;;;;;;;2.22;1.10;;;19.60;84.70;;;;;;21042371;28;20056;-44
2022/04/19 11:18:41;;;;;;;3.10;1.10;;;20.10;77.50;;;;;;21037915;28;20028;-44
2022/04/19 11:28:42;;;;;;;3.40;1.42;;;20.10;77.00;;;;;;21062555;28;20044;-44
2022/04/19 11:38:48;;;;;;;3.97;2.17;;;20.00;76.20;;;;;;21052181;28;20028;-44
2022/04/19 11:48:50;;;;;;;2.65;0.75;;;20.40;78.10;;;;;;21062098;28;20074;-44
2022/04/19 11:58:52;;;;;;;2.38;0.80;;;20.40;78.90;;;;;;21039667;28;20047;-44
2022/04/19 12:08:53;;;;;;;3.75;1.80;;;20.40;76.80;;;;;;21059772;28;20047;-44
2022/04/19 12:18:54;;;;;;;2.58;1.15;;;20.60;75.50;;;;;;21055107;28;20100;-44
2022/04/19 12:29:07;;;;;;;2.55;0.80;;;20.60;76.20;;;;;;21058477;28;20031;-44
2022/04/19 12:39:08;;;;;;;2.95;1.45;;;21.20;73.40;;;;;;21041554;28;20039;-44
2022/04/19 12:49:43;;;;;;;2.45;0.77;;;21.30;75.70;;;;;;21044031;28;20044;-44
2022/04/19 12:59:44;;;;;;;4.80;1.45;;;21.10;74.50;;;;;;21001775;28;20048;-45
2022/04/19 13:20:07;;;;;;;5.05;1.65;;;21.80;73.90;;;;;;21043272;28;20054;-45
2022/04/19 13:30:11;;;;;;;3.97;1.95;;;21.30;74.70;;;;;;21056734;28;20123;-44
2022/04/19 13:40:13;;;;;;;3.67;1.35;;;21.70;80.80;;;;;;21053952;28;20059;-44
2022/04/19 13:50:15;;;;;;;7.40;2.40;;;21.50;81.10;;;;;;21052841;28;20036;-44
2022/04/19 14:00:16;;;;;;;4.35;1.88;;;21.00;85.40;;;;;;21051407;28;20040;-44
2022/04/19 14:10:17;;;;;;;5.47;2.03;;;20.50;87.10;;;;;;21036813;28;20036;-44
2022/04/19 14:20:19;;;;;;;5.53;1.88;;;19.90;90.00;;;;;;21048730;28;20035;-45
2022/04/19 14:40:40;;;;;;;3.25;1.00;;;19.30;90.70;;;;;;21041078;28;20027;-44
2022/04/19 15:01:01;;;;;;;2.38;0.80;;;19.10;90.90;;;;;;21044742;28;20533;-45
2022/04/19 15:11:02;;;;;;;1.92;0.47;;;18.80;91.50;;;;;;21044953;28;20036;-45
2022/04/19 15:21:03;;;;;;;1.70;0.63;;;18.80;90.60;;;;;;21030977;28;20036;-44
2022/04/19 15:31:05;;;;;;;0.82;0.38;;;19.30;85.90;;;;;;21034570;28;20078;-45
2022/04/19 15:41:08;;;;;;;1.75;0.70;;;19.20;81.40;;;;;;21027656;28;20029;-44
2022/04/19 15:51:09;;;;;;;2.30;1.20;;;19.30;81.70;;;;;;21038953;28;20042;-44
2022/04/19 16:01:11;;;;;;;1.20;0.45;;;19.10;81.20;;;;;;21014830;28;20036;-44
2022/04/19 16:11:12;;;;;;;1.73;0.63;;;18.90;81.20;;;;;;21050469;28;20041;-44
2022/04/19 16:31:37;;;;;;;0.57;0.22;;;18.50;83.20;;;;;;21048176;28;20043;-44
2022/04/19 16:41:39;;;;;;;1.30;0.55;;;18.50;82.00;;;;;;21021655;28;20044;-45
2022/04/19 16:51:41;;;;;;;2.35;0.60;;;18.20;84.10;;;;;;21033552;28;20136;-45
2022/04/19 17:01:42;;;;;;;1.27;0.50;;;18.00;86.20;;;;;;21039236;28;20040;-45
2022/04/19 17:11:44;;;;;;;0.75;0.28;;;17.80;85.60;;;;;;21034803;28;20471;-45
2022/04/19 17:21:45;;;;;;;0.82;0.40;;;17.60;86.30;;;;;;21042774;28;20055;-45
2022/04/19 17:31:47;;;;;;;1.73;0.40;;;17.30;88.20;;;;;;21045659;28;20444;-45
2022/04/19 17:41:48;;;;;;;1.13;0.40;;;17.10;87.60;;;;;;21012352;28;20035;-45
2022/04/19 18:02:13;;;;;;;1.83;0.40;;;16.80;89.40;;;;;;20994914;28;20047;-45
2022/04/19 18:12:14;;;;;;;0.85;0.40;;;16.60;90.10;;;;;;21004275;28;20279;-45
2022/04/19 18:32:35;;;;;;;1.00;0.55;;;16.20;90.60;;;;;;21010143;28;20043;-45
2022/04/19 18:42:36;;;;;;;1.00;0.40;;;16.10;90.60;;;;;;20999747;28;20301;-45
2022/04/19 18:52:38;;;;;;;1.77;1.25;;;15.80;91.70;;;;;;20979045;28;20048;-45
2022/04/19 19:10:41;;;;;;;1.80;0.70;;;15.40;99.50;;;;;;21075043;27;20260;-40
2022/04/19 19:20:43;;;;;;;0.70;0.30;;;15.00;98.40;;;;;;20961287;28;20032;-40
2022/04/19 19:30:44;;;;;;;1.63;0.75;;;14.70;99.80;;;;;;20993224;28;20043;-40
2022/04/19 19:40:45;;;;;;;2.35;0.93;;;14.50;99.90;;;;;;20969913;28;20051;-40
2022/04/19 19:50:47;;;;;;;1.33;0.77;;;14.30;99.90;;;;;;20972419;28;20044;-40
2022/04/19 20:00:49;;;;;;;1.27;0.45;;;14.10;99.90;;;;;;20969061;28;20032;-40
2022/04/19 20:10:50;;;;;;;1.67;0.68;;;13.90;99.90;;;;;;20995377;28;20034;-40
2022/04/19 20:20:51;;;;;;;1.40;0.70;;;13.70;99.90;;;;;;20819860;27;20480;-40
2022/04/19 20:30:52;;;;;;;2.92;1.83;;;13.70;99.90;;;;;;20830734;28;20364;-40
2022/04/19 20:40:55;;;;;;;2.25;0.80;;;13.70;99.90;;;;;;20836886;28;20033;-40
2022/04/19 20:50:59;;;;;;;1.88;0.60;;;13.60;99.90;;;;;;20830893;28;20028;-40
2022/04/19 21:01:03;;;;;;;2.75;0.90;;;13.50;99.90;;;;;;20840817;28;20535;-40
2022/04/19 21:11:04;;;;;;;1.23;0.47;;;13.40;99.90;;;;;;20848936;28;20508;-40
2022/04/19 21:21:05;;;;;;;2.55;0.93;;;13.40;99.90;;;;;;20837122;28;20052;-40
2022/04/19 21:31:06;;;;;;;6.25;1.58;;;13.40;99.90;;;;;;20848409;28;20040;-40
2022/04/19 21:41:07;;;;;;;4.05;1.40;;;13.40;99.90;;;;;;20833305;28;20037;-40
2022/04/19 21:51:08;;;;;;;8.85;1.38;;;13.30;99.90;;;;;;20819191;28;20582;-37
2022/04/19 22:01:16;;;;;;;6.70;2.92;;;13.20;99.90;;;;;;20810445;28;20049;-38
2022/04/19 22:11:17;;;;;;;4.95;1.73;;;13.10;99.90;;;;;;20814701;28;20044;-38
2022/04/19 22:21:18;;;;;;;4.53;2.05;;;12.70;99.90;;;;;;20809236;28;20048;-38
2022/04/19 22:31:21;;;;;;;6.30;2.63;;;12.60;99.90;;;;;;20805043;28;20783;-38
2022/04/19 22:41:22;;;;;;;5.80;1.98;;;12.50;99.90;;;;;;20797694;28;20057;-38
2022/04/19 22:51:23;;;;;;;3.65;1.73;;;12.40;99.90;;;;;;20800049;28;20358;-38
2022/04/19 23:01:24;;;;;;;9.73;3.15;;;12.20;99.90;;;;;;20801637;28;20045;-38
2022/04/19 23:11:25;;;;;;;3.88;2.15;;;12.10;99.90;;;;;;20813478;28;20377;-38
2022/04/19 23:21:26;;;;;;;7.28;2.65;;;11.90;99.90;;;;;;20843063;28;20051;-40
2022/04/19 23:31:27;;;;;;;3.65;1.58;;;11.90;99.90;;;;;;20840090;28;20486;-39
2022/04/19 23:41:28;;;;;;;5.07;2.13;;;11.70;99.90;;;;;;20840337;28;20044;-38
2022/04/19 23:51:29;;;;;;;4.60;1.80;;;11.50;99.90;;;;;;20843589;28;20025;-39
